Torphins, United Kingdom
Current Conditions -  °F | °C
As of 11:20 PM on Tuesday 25 Nov 2014 (Local Time) from EGPD Reporting Station
Light Fog Light Fog  
Wind Chill: 41°   Ceiling: 3700
Heat Index: 41°   Visibility: 0.56mi
Dew Point: 41°   Wind: 0mph
Humidity: 100%   Direction: NA
Pressure: 30.15"   Gusts: NA
Location:  57.11°N, 2.62°W
Report Text: EGPD 252320Z 00000KT 0900 R34/1000 BCFG FEW015 BKN037 05/05 Q1021
Loading
Personal Weather Stations






























Interactive Weather Map New forecast layout! Learn more

10-Day Weather Forecast

Advertisements
Track Severe Weather on mobile